createdAt,value
2022-08-11T00:04:58.462Z,100953.69
2022-08-11T00:10:01.398Z,100955.88
2022-08-11T00:15:02.663Z,100958.94
2022-08-11T00:20:13.697Z,100960.13
2022-08-11T00:25:20.208Z,100967.03
2022-08-11T00:30:20.827Z,100966.84
2022-08-11T00:35:50.978Z,100973.41
2022-08-11T00:40:56.464Z,100968.66
2022-08-11T00:46:13.516Z,100978.69
2022-08-11T00:51:26.377Z,100977.09
2022-08-11T00:57:36.783Z,100976.69
2022-08-11T01:03:15.293Z,100971.63
2022-08-11T01:08:31.135Z,100971.88
2022-08-11T01:14:05.469Z,100961.28
2022-08-11T01:20:38.466Z,100976.34
2022-08-11T01:25:57.041Z,100974.38
2022-08-11T01:31:38.661Z,100978.94
2022-08-11T01:37:03.660Z,100975.72
2022-08-11T01:43:00.075Z,100977.69
2022-08-11T01:48:06.684Z,100968.88
2022-08-11T01:53:19.009Z,100967.19
2022-08-11T01:58:43.168Z,100965.50
2022-08-11T02:03:48.947Z,100962.94
2022-08-11T02:08:59.972Z,100962.88
2022-08-11T02:14:25.590Z,100965.16
2022-08-11T02:19:56.023Z,100962.16
2022-08-11T02:25:02.961Z,100963.09
2022-08-11T02:30:07.544Z,100971.13
2022-08-11T02:35:18.950Z,100972.91
2022-08-11T02:40:31.298Z,100960.09
2022-08-11T02:45:50.098Z,100973.72
2022-08-11T02:51:02.136Z,100959.53
2022-08-11T02:56:14.044Z,100967.25
2022-08-11T03:01:24.499Z,100974.38
2022-08-11T03:06:36.360Z,100979.03
2022-08-11T03:12:14.360Z,100975.19
2022-08-11T03:17:26.850Z,100983.28
2022-08-11T03:22:33.894Z,100991.13
2022-08-11T03:27:47.268Z,100991.13
2022-08-11T03:33:19.801Z,100986.25
2022-08-11T03:38:30.775Z,100986.38
2022-08-11T03:43:58.762Z,100980.59
2022-08-11T03:49:10.466Z,100984.00
2022-08-11T03:54:26.347Z,100978.09
2022-08-11T03:59:56.832Z,100974.72
2022-08-11T04:05:29.225Z,100974.69
2022-08-11T04:10:47.858Z,100970.31
2022-08-11T04:16:11.065Z,100969.28
2022-08-11T04:21:27.823Z,100971.84
2022-08-11T04:27:00.165Z,100971.84
2022-08-11T04:32:25.620Z,100969.28
2022-08-11T04:37:42.542Z,100979.50
2022-08-11T04:43:29.069Z,100979.22
2022-08-11T04:49:10.766Z,100974.94
2022-08-11T04:54:47.656Z,100980.50
2022-08-11T05:00:23.557Z,100975.09
2022-08-11T05:05:37.022Z,100974.22
2022-08-11T05:10:59.469Z,100976.66
2022-08-11T05:16:26.536Z,100978.38
2022-08-11T05:21:46.396Z,100986.78
2022-08-11T05:27:13.388Z,100993.63
2022-08-11T05:32:35.769Z,100997.69
2022-08-11T05:38:01.708Z,100996.66
2022-08-11T05:43:21.894Z,100997.03
2022-08-11T05:48:40.929Z,100991.38
2022-08-11T05:54:28.596Z,100986.69
2022-08-11T05:59:32.544Z,100997.34
2022-08-11T06:04:34.402Z,101002.81
2022-08-11T06:09:38.843Z,101008.13
2022-08-11T06:14:46.073Z,101001.59
2022-08-11T06:19:49.767Z,101002.00
2022-08-11T06:24:57.027Z,101004.84
2022-08-11T06:29:58.285Z,101010.53
2022-08-11T06:35:18.751Z,101004.19
2022-08-11T06:40:31.498Z,101006.03
2022-08-11T06:45:40.055Z,101011.03
2022-08-11T06:50:58.868Z,101001.56
2022-08-11T06:56:18.980Z,101005.44
2022-08-11T07:01:28.293Z,101012.31
2022-08-11T07:06:41.673Z,101007.69
2022-08-11T07:12:20.677Z,101002.41
2022-08-11T07:17:23.681Z,100993.69
2022-08-11T07:22:45.498Z,101002.22
2022-08-11T07:28:19.448Z,100994.56
2022-08-11T07:34:07.860Z,100993.53
2022-08-11T07:38:52.620Z,100986.44
2022-08-11T07:44:08.729Z,100979.06
2022-08-11T07:49:29.267Z,100978.53
2022-08-11T07:54:33.422Z,100980.41
2022-08-11T08:00:04.342Z,100980.78
2022-08-11T08:05:36.563Z,100975.13
2022-08-11T08:10:56.817Z,100971.16
2022-08-11T08:16:16.938Z,100960.06
2022-08-11T08:21:17.698Z,100948.66
2022-08-11T08:26:33.612Z,100948.81
2022-08-11T08:31:35.738Z,100947.44
2022-08-11T08:36:37.401Z,100943.84
2022-08-11T08:41:40.034Z,100936.34
2022-08-11T08:46:44.555Z,100933.56
2022-08-11T08:51:58.680Z,100934.22
2022-08-11T08:57:12.144Z,100925.75
2022-08-11T09:02:14.322Z,100924.00
2022-08-11T09:07:17.723Z,100912.19
2022-08-11T09:12:36.210Z,100915.72
2022-08-11T09:17:44.575Z,100918.63
2022-08-11T09:24:02.151Z,100908.63
2022-08-11T09:28:25.790Z,100908.84
2022-08-11T09:33:29.557Z,100903.69
2022-08-11T09:38:49.728Z,100905.34
2022-08-11T09:44:08.614Z,100910.41
2022-08-11T09:49:11.074Z,100908.28
2022-08-11T09:54:13.457Z,100903.75
2022-08-11T09:59:14.206Z,100894.53
2022-08-11T10:04:18.221Z,100889.88
2022-08-11T10:09:22.173Z,100883.59
2022-08-11T10:14:44.801Z,100884.34
2022-08-11T10:20:04.082Z,100884.91
2022-08-11T10:25:25.749Z,100881.28
2022-08-11T10:30:44.929Z,100879.75
2022-08-11T10:35:47.142Z,100873.25
2022-08-11T10:41:10.813Z,100864.88
2022-08-11T10:46:30.734Z,100859.09
2022-08-11T10:51:52.111Z,100850.22
2022-08-11T10:57:13.681Z,100854.56
2022-08-11T11:02:16.058Z,100843.44
2022-08-11T11:07:24.175Z,100844.69
2022-08-11T11:12:45.670Z,100836.22
2022-08-11T11:17:57.711Z,100825.75
2022-08-11T11:23:05.721Z,100838.16
2022-08-11T11:28:34.056Z,100818.75
2022-08-11T11:34:06.195Z,100809.59
2022-08-11T11:39:10.787Z,100810.00
2022-08-11T11:44:14.060Z,100810.06
2022-08-11T11:49:18.592Z,100807.44
2022-08-11T11:54:23.763Z,100795.03
2022-08-11T11:59:44.504Z,100797.38
2022-08-11T12:04:48.779Z,100792.06
2022-08-11T12:09:51.736Z,100798.25
2022-08-11T12:14:54.326Z,100790.16
2022-08-11T12:19:57.259Z,100785.03
2022-08-11T12:25:17.114Z,100789.56
2022-08-11T12:30:20.106Z,100775.25
2022-08-11T12:35:21.082Z,100768.81
2022-08-11T12:41:11.680Z,100769.28
2022-08-11T12:46:07.466Z,100758.22
2022-08-11T12:51:30.781Z,100745.38
2022-08-11T12:57:15.952Z,100748.44
2022-08-11T13:02:54.789Z,100746.47
2022-08-11T13:07:55.666Z,100735.41
2022-08-11T13:12:57.795Z,100732.03
2022-08-11T13:18:00.314Z,100724.78
2022-08-11T13:23:01.931Z,100728.31
2022-08-11T13:28:06.295Z,100705.72
2022-08-11T13:33:08.425Z,100713.03
2022-08-11T13:38:17.935Z,100708.00
2022-08-11T13:43:24.186Z,100702.34
2022-08-11T13:48:25.041Z,100698.38
2022-08-11T13:53:28.306Z,100698.97
2022-08-11T13:58:39.553Z,100695.53
2022-08-11T14:04:29.101Z,100698.19
2022-08-11T14:09:05.317Z,100692.88
2022-08-11T14:14:11.472Z,100685.13
2022-08-11T14:19:15.331Z,100672.06
2022-08-11T14:24:18.661Z,100672.38
2022-08-11T14:29:22.663Z,100677.63
2022-08-11T14:34:27.476Z,100668.97
2022-08-11T14:39:30.169Z,100667.28
2022-08-11T14:44:51.564Z,100655.16
2022-08-11T14:50:03.090Z,100662.44
2022-08-11T14:55:30.821Z,100657.88
2022-08-11T15:00:35.441Z,100663.19
2022-08-11T15:05:37.145Z,100663.69
2022-08-11T15:10:38.146Z,100657.06
2022-08-11T15:16:02.553Z,100647.81
2022-08-11T15:21:23.868Z,100637.97
2022-08-11T15:26:45.893Z,100640.03
2022-08-11T15:32:06.550Z,100636.88
2022-08-11T15:37:31.460Z,100631.84
2022-08-11T15:42:51.584Z,100623.34
2022-08-11T15:48:05.023Z,100625.63
2022-08-11T15:53:10.002Z,100618.66
2022-08-11T15:58:30.729Z,100624.75
2022-08-11T16:04:07.119Z,100616.63
2022-08-11T16:09:18.488Z,100615.75
2022-08-11T16:14:39.616Z,100610.31
2022-08-11T16:19:43.732Z,100599.44
2022-08-11T16:27:05.817Z,100600.72
2022-08-11T16:30:09.072Z,100609.44
2022-08-11T16:35:32.247Z,100605.28
2022-08-11T16:40:34.565Z,100588.91
2022-08-11T16:45:55.308Z,100600.53
2022-08-11T16:51:00.912Z,100600.03
2022-08-11T16:56:06.650Z,100596.91
2022-08-11T17:01:08.720Z,100602.41
2022-08-11T17:06:31.680Z,100601.13
2022-08-11T17:11:55.961Z,100590.78
2022-08-11T17:16:58.303Z,100601.41
2022-08-11T17:22:18.803Z,100597.44
2022-08-11T17:27:23.967Z,100605.59
2022-08-11T17:32:56.151Z,100594.41
2022-08-11T17:38:05.228Z,100599.94
2022-08-11T17:43:27.056Z,100602.56
2022-08-11T17:48:30.148Z,100608.00
2022-08-11T17:54:10.157Z,100604.97
2022-08-11T17:59:32.400Z,100612.22
2022-08-11T18:04:33.414Z,100619.59
2022-08-11T18:09:53.165Z,100621.19
2022-08-11T18:15:14.069Z,100624.34
2022-08-11T18:20:32.185Z,100623.97
2022-08-11T18:25:56.942Z,100626.88
2022-08-11T18:31:19.131Z,100639.13
2022-08-11T18:36:41.270Z,100640.81
2022-08-11T18:42:03.199Z,100650.84
2022-08-11T18:47:28.894Z,100645.84
2022-08-11T18:52:49.679Z,100655.00
2022-08-11T18:58:11.609Z,100640.72
2022-08-11T19:03:32.333Z,100649.56
2022-08-11T19:09:10.868Z,100645.84
2022-08-11T19:14:31.548Z,100636.44
2022-08-11T19:19:52.650Z,100643.44
2022-08-11T19:25:13.142Z,100640.97
2022-08-11T19:30:33.302Z,100647.81
2022-08-11T19:35:52.304Z,100647.81
2022-08-11T19:41:11.309Z,100654.03
2022-08-11T19:46:31.852Z,100657.19
2022-08-11T19:51:53.994Z,100659.19
2022-08-11T19:57:13.475Z,100659.75
2022-08-11T20:02:33.517Z,100660.84
2022-08-11T20:07:52.417Z,100667.75
2022-08-11T20:13:12.375Z,100672.97
2022-08-11T20:18:42.570Z,100668.97
2022-08-11T20:24:03.038Z,100676.59
2022-08-11T20:29:21.688Z,100670.22
2022-08-11T20:34:43.086Z,100675.28
2022-08-11T20:40:04.104Z,100676.03
2022-08-11T20:45:24.237Z,100686.84
2022-08-11T20:50:45.628Z,100686.44
2022-08-11T20:56:28.689Z,100683.41
2022-08-11T21:01:52.227Z,100689.22
2022-08-11T21:07:27.054Z,100694.13
2022-08-11T21:12:50.735Z,100691.03
2022-08-11T21:18:10.452Z,100693.59
2022-08-11T21:23:50.683Z,100696.81
2022-08-11T21:29:11.654Z,100697.91
2022-08-11T21:34:32.449Z,100703.22
2022-08-11T21:39:53.604Z,100710.91
2022-08-11T21:45:13.723Z,100706.59
2022-08-11T21:50:32.130Z,100710.78
2022-08-11T21:55:53.447Z,100712.72
2022-08-11T22:01:13.133Z,100711.16
2022-08-11T22:06:32.291Z,100716.63
2022-08-11T22:12:33.912Z,100716.28
2022-08-11T22:17:30.844Z,100714.19
2022-08-11T22:22:52.752Z,100707.69
2022-08-11T22:28:13.079Z,100710.56
2022-08-11T22:33:33.693Z,100709.84
2022-08-11T22:38:53.906Z,100718.72
2022-08-11T22:44:13.708Z,100711.38
2022-08-11T22:49:42.295Z,100713.25
2022-08-11T22:55:01.410Z,100722.91
2022-08-11T23:00:21.196Z,100720.00
2022-08-11T23:05:40.022Z,100720.31
2022-08-11T23:10:59.480Z,100713.00
2022-08-11T23:16:20.138Z,100725.19
2022-08-11T23:21:38.936Z,100727.41
2022-08-11T23:26:58.777Z,100723.75
2022-08-11T23:32:21.300Z,100719.53
2022-08-11T23:37:40.049Z,100727.66
2022-08-11T23:42:59.437Z,100726.31
2022-08-11T23:48:20.880Z,100716.97
2022-08-11T23:53:39.725Z,100713.56
2022-08-11T23:58:58.121Z,100712.75
